createdAt,value
2018-12-09T00:02:20.143Z,8.80
2018-12-09T00:04:46.526Z,8.70
2018-12-09T00:07:12.985Z,8.70
2018-12-09T00:09:40.563Z,8.70
2018-12-09T00:12:06.980Z,8.80
2018-12-09T00:14:33.597Z,8.70
2018-12-09T00:17:00.134Z,8.70
2018-12-09T00:19:27.155Z,8.70
2018-12-09T00:21:55.842Z,8.70
2018-12-09T00:24:23.073Z,8.70
2018-12-09T00:26:50.019Z,8.60
2018-12-09T00:29:16.931Z,8.60
2018-12-09T00:31:43.610Z,8.60
2018-12-09T00:34:10.849Z,8.60
2018-12-09T00:36:37.865Z,8.60
2018-12-09T00:39:05.250Z,8.60
2018-12-09T00:41:31.872Z,8.60
2018-12-09T00:43:58.767Z,8.60
2018-12-09T00:46:26.017Z,8.60
2018-12-09T00:48:54.195Z,8.70
2018-12-09T00:51:20.599Z,8.70
2018-12-09T00:53:46.956Z,8.70
2018-12-09T00:56:13.673Z,8.80
2018-12-09T00:58:40.022Z,8.80
2018-12-09T01:01:07.004Z,8.80
2018-12-09T01:03:34.465Z,8.70
2018-12-09T01:06:02.874Z,8.70
2018-12-09T01:08:29.304Z,8.70
2018-12-09T01:10:55.597Z,8.60
2018-12-09T01:13:21.919Z,8.60
2018-12-09T01:15:48.635Z,8.50
2018-12-09T01:18:14.878Z,8.40
2018-12-09T01:20:41.267Z,8.40
2018-12-09T01:23:07.645Z,8.30
2018-12-09T01:25:34.055Z,8.30
2018-12-09T01:28:00.221Z,8.30
2018-12-09T01:30:29.755Z,8.30
2018-12-09T01:35:48.974Z,8.20
2018-12-09T01:38:15.677Z,8.20
2018-12-09T01:40:48.923Z,8.20
2018-12-09T01:43:16.327Z,8.20
2018-12-09T01:45:42.605Z,8.20
2018-12-09T01:48:09.227Z,8.20
2018-12-09T01:50:38.656Z,8.20
2018-12-09T01:53:17.570Z,8.20
2018-12-09T01:55:44.154Z,8.20
2018-12-09T01:58:10.447Z,8.30
2018-12-09T02:00:37.578Z,8.30
2018-12-09T02:03:04.037Z,8.30
2018-12-09T02:05:30.509Z,8.30
2018-12-09T02:07:56.940Z,8.30
2018-12-09T02:10:23.277Z,8.30
2018-12-09T02:12:49.539Z,8.30
2018-12-09T02:15:16.134Z,8.30
2018-12-09T02:17:42.427Z,8.30
2018-12-09T02:20:08.903Z,8.40
2018-12-09T02:22:35.194Z,8.40
2018-12-09T02:25:01.662Z,8.40
2018-12-09T02:27:28.096Z,8.30
2018-12-09T02:29:54.687Z,8.20
2018-12-09T02:32:21.107Z,8.10
2018-12-09T02:34:49.741Z,8.00
2018-12-09T02:37:16.003Z,8.00
2018-12-09T02:39:42.285Z,7.90
2018-12-09T02:42:08.789Z,7.90
2018-12-09T02:44:35.215Z,7.80
2018-12-09T02:47:01.561Z,7.80
2018-12-09T02:52:20.337Z,7.80
2018-12-09T02:54:46.765Z,7.80
2018-12-09T02:57:13.159Z,7.80
2018-12-09T02:59:40.226Z,7.70
2018-12-09T03:02:06.419Z,7.70
2018-12-09T03:04:32.705Z,7.80
2018-12-09T03:06:59.588Z,7.80
2018-12-09T03:09:25.872Z,7.80
2018-12-09T03:11:52.383Z,7.70
2018-12-09T03:14:19.206Z,7.80
2018-12-09T03:16:46.241Z,7.80
2018-12-09T03:19:12.479Z,7.80
2018-12-09T03:21:38.776Z,7.80
2018-12-09T03:24:05.089Z,7.80
2018-12-09T03:26:31.474Z,7.80
2018-12-09T03:31:50.639Z,7.70
2018-12-09T03:34:16.905Z,7.70
2018-12-09T03:36:44.356Z,7.70
2018-12-09T03:39:10.715Z,7.70
2018-12-09T03:41:37.294Z,7.70
2018-12-09T03:44:03.657Z,7.70
2018-12-09T03:46:30.793Z,7.70
2018-12-09T03:48:57.401Z,7.80
2018-12-09T03:51:24.064Z,7.80
2018-12-09T03:53:50.304Z,7.80
2018-12-09T03:56:16.589Z,7.90
2018-12-09T03:58:42.976Z,7.90
2018-12-09T04:01:09.367Z,7.90
2018-12-09T04:03:37.010Z,7.80
2018-12-09T04:06:03.458Z,7.80
2018-12-09T04:08:29.875Z,7.80
2018-12-09T04:10:56.346Z,7.80
2018-12-09T04:13:22.619Z,7.90
2018-12-09T04:15:48.909Z,7.90
2018-12-09T04:18:15.288Z,7.90
2018-12-09T04:20:41.671Z,7.90
2018-12-09T04:23:07.947Z,7.90
2018-12-09T04:25:34.276Z,8.00
2018-12-09T04:28:00.621Z,8.00
2018-12-09T04:30:27.277Z,8.00
2018-12-09T04:32:53.729Z,7.90
2018-12-09T04:35:20.127Z,7.90
2018-12-09T04:37:46.528Z,7.80
2018-12-09T04:40:12.774Z,7.70
2018-12-09T04:42:39.011Z,7.60
2018-12-09T04:45:05.543Z,7.60
2018-12-09T04:47:32.669Z,7.60
2018-12-09T04:49:58.902Z,7.60
2018-12-09T04:52:25.198Z,7.60
2018-12-09T04:54:51.457Z,7.60
2018-12-09T04:57:17.758Z,7.50
2018-12-09T04:59:46.293Z,7.60
2018-12-09T05:02:12.533Z,7.50
2018-12-09T05:04:38.771Z,7.50
2018-12-09T05:07:05.143Z,7.40
2018-12-09T05:09:31.842Z,7.30
2018-12-09T05:11:58.283Z,7.20
2018-12-09T05:17:17.203Z,7.00
2018-12-09T05:19:43.471Z,6.90
2018-12-09T05:22:09.744Z,6.90
2018-12-09T05:24:36.065Z,6.80
2018-12-09T05:27:02.343Z,6.70
2018-12-09T05:29:28.678Z,6.70
2018-12-09T05:31:55.523Z,6.70
2018-12-09T05:34:21.843Z,6.60
2018-12-09T05:36:48.259Z,6.60
2018-12-09T05:39:14.612Z,6.60
2018-12-09T05:41:41.465Z,6.50
2018-12-09T05:44:07.722Z,6.50
2018-12-09T05:46:34.065Z,6.50
2018-12-09T05:49:00.447Z,6.50
2018-12-09T05:51:26.801Z,6.50
2018-12-09T05:53:53.039Z,6.50
2018-12-09T05:56:19.853Z,6.50
2018-12-09T05:58:46.096Z,6.50
2018-12-09T06:01:12.316Z,6.50
2018-12-09T06:03:38.741Z,6.50
2018-12-09T06:06:04.983Z,6.50
2018-12-09T06:08:31.200Z,6.50
2018-12-09T06:10:57.528Z,6.50
2018-12-09T06:13:24.307Z,6.40
2018-12-09T06:15:50.696Z,6.40
2018-12-09T06:18:16.954Z,6.40
2018-12-09T06:20:43.338Z,6.40
2018-12-09T06:23:09.612Z,6.40
2018-12-09T06:25:36.017Z,6.40
2018-12-09T06:28:02.300Z,6.40
2018-12-09T06:30:28.965Z,6.40
2018-12-09T06:32:55.221Z,6.40
2018-12-09T06:35:21.561Z,6.40
2018-12-09T06:37:47.929Z,6.30
2018-12-09T06:40:14.294Z,6.30
2018-12-09T06:42:40.555Z,6.30
2018-12-09T06:45:07.054Z,6.30
2018-12-09T06:47:33.316Z,6.30
2018-12-09T06:49:59.539Z,6.30
2018-12-09T06:52:25.813Z,6.40
2018-12-09T06:54:52.553Z,6.30
2018-12-09T06:57:18.850Z,6.40
2018-12-09T06:59:45.142Z,6.40
2018-12-09T07:02:11.446Z,6.30
2018-12-09T07:04:37.876Z,6.30
2018-12-09T07:07:04.201Z,6.40
2018-12-09T07:09:30.503Z,6.40
2018-12-09T07:11:56.757Z,6.40
2018-12-09T07:14:22.970Z,6.40
2018-12-09T07:16:49.181Z,6.40
2018-12-09T07:19:16.660Z,6.30
2018-12-09T07:21:43.070Z,6.40
2018-12-09T07:24:11.591Z,6.40
2018-12-09T07:26:38.008Z,6.40
2018-12-09T07:29:04.357Z,6.30
2018-12-09T07:31:31.538Z,6.30
2018-12-09T07:33:58.897Z,6.30
2018-12-09T07:36:25.183Z,6.30
2018-12-09T07:38:51.411Z,6.30
2018-12-09T07:41:18.368Z,6.30
2018-12-09T07:43:44.763Z,6.40
2018-12-09T07:46:11.188Z,6.30
2018-12-09T07:48:37.537Z,6.40
2018-12-09T07:51:04.095Z,6.40
2018-12-09T07:53:31.229Z,6.40
2018-12-09T07:55:58.506Z,6.50
2018-12-09T07:58:24.836Z,6.50
2018-12-09T08:00:51.195Z,6.50
2018-12-09T08:03:17.642Z,6.50
2018-12-09T08:05:43.899Z,6.60
2018-12-09T08:08:10.128Z,6.60
2018-12-09T08:10:36.366Z,6.60
2018-12-09T08:13:02.729Z,6.60
2018-12-09T08:15:29.043Z,6.60
2018-12-09T08:20:47.918Z,6.60
2018-12-09T08:23:14.257Z,6.60
2018-12-09T08:25:40.663Z,6.60
2018-12-09T08:28:06.936Z,6.60
2018-12-09T08:30:34.161Z,6.50
2018-12-09T08:33:00.415Z,6.50
2018-12-09T08:35:27.552Z,6.50
2018-12-09T08:37:54.513Z,6.40
2018-12-09T08:40:20.830Z,6.40
2018-12-09T08:42:47.196Z,6.40
2018-12-09T08:45:13.470Z,6.30
2018-12-09T08:47:39.858Z,6.30
2018-12-09T08:50:06.408Z,6.30
2018-12-09T08:52:32.777Z,6.40
2018-12-09T08:54:58.982Z,6.30
2018-12-09T08:57:26.462Z,6.30
2018-12-09T08:59:52.754Z,6.30
2018-12-09T09:02:18.995Z,6.40
2018-12-09T09:04:45.252Z,6.40
2018-12-09T09:07:11.490Z,6.40
2018-12-09T09:09:37.809Z,6.50
2018-12-09T09:12:04.139Z,6.50
2018-12-09T09:14:30.366Z,6.60
2018-12-09T09:16:56.743Z,6.50
2018-12-09T09:19:22.949Z,6.50
2018-12-09T09:21:49.294Z,6.40
2018-12-09T09:24:15.636Z,6.50
2018-12-09T09:26:43.089Z,6.50
2018-12-09T09:29:14.244Z,6.50
2018-12-09T09:31:42.604Z,6.50
2018-12-09T09:34:08.949Z,6.50
2018-12-09T09:36:35.242Z,6.60
2018-12-09T09:39:01.980Z,6.60
2018-12-09T09:41:29.117Z,6.70
2018-12-09T09:43:55.329Z,6.60
2018-12-09T09:46:21.703Z,6.60
2018-12-09T09:48:48.076Z,6.60
2018-12-09T09:51:16.085Z,6.70
2018-12-09T09:53:43.134Z,6.70
2018-12-09T09:56:10.725Z,6.70
2018-12-09T09:58:37.221Z,6.70
2018-12-09T10:01:04.633Z,6.70
2018-12-09T10:06:23.703Z,6.80
2018-12-09T10:08:50.240Z,6.90
2018-12-09T10:11:16.494Z,7.00
2018-12-09T10:13:42.719Z,7.00
2018-12-09T10:16:09.285Z,7.10
2018-12-09T10:18:35.522Z,7.00
2018-12-09T10:21:01.731Z,7.00
2018-12-09T10:23:28.131Z,6.90
2018-12-09T10:25:54.489Z,6.90
2018-12-09T10:28:21.042Z,6.80
2018-12-09T10:30:47.374Z,6.90
2018-12-09T10:33:13.745Z,6.90
2018-12-09T10:35:40.204Z,7.00
2018-12-09T10:41:00.464Z,7.20
2018-12-09T10:43:26.858Z,7.30
2018-12-09T10:45:53.315Z,7.40
2018-12-09T10:48:19.707Z,7.60
2018-12-09T10:50:46.129Z,7.50
2018-12-09T10:53:12.427Z,7.50
2018-12-09T10:55:38.666Z,7.50
2018-12-09T10:58:04.972Z,7.60
2018-12-09T11:00:37.382Z,7.60
2018-12-09T11:03:03.903Z,7.70
2018-12-09T11:05:30.363Z,7.80
2018-12-09T11:07:56.651Z,7.80
2018-12-09T11:10:23.132Z,7.80
2018-12-09T11:12:49.377Z,7.70
2018-12-09T11:15:15.797Z,7.80
2018-12-09T11:17:42.105Z,7.80
2018-12-09T11:20:08.404Z,7.90
2018-12-09T11:22:34.623Z,7.80
2018-12-09T11:27:53.428Z,7.80
2018-12-09T11:30:19.731Z,7.70
2018-12-09T11:32:45.988Z,7.70
2018-12-09T11:35:12.339Z,7.80
2018-12-09T11:37:38.724Z,7.80
2018-12-09T11:40:05.273Z,7.90
2018-12-09T11:42:31.694Z,7.90
2018-12-09T11:44:57.916Z,8.00
2018-12-09T11:47:24.387Z,8.10
2018-12-09T11:49:50.711Z,8.10
2018-12-09T11:52:17.421Z,8.20
2018-12-09T11:54:43.851Z,8.20
2018-12-09T11:57:10.607Z,8.20
2018-12-09T11:59:36.825Z,8.30
2018-12-09T12:02:03.167Z,8.30
2018-12-09T12:04:29.685Z,8.30
2018-12-09T12:06:55.920Z,8.40
2018-12-09T12:09:22.159Z,8.40
2018-12-09T12:11:48.417Z,8.40
2018-12-09T12:14:14.754Z,8.40
2018-12-09T12:16:41.034Z,8.50
2018-12-09T12:19:07.275Z,8.70
2018-12-09T12:21:33.483Z,8.70
2018-12-09T12:23:59.796Z,8.70
2018-12-09T12:26:26.458Z,8.70
2018-12-09T12:28:52.711Z,8.60
2018-12-09T12:31:18.913Z,8.50
2018-12-09T12:33:45.156Z,8.50
2018-12-09T12:36:11.355Z,8.40
2018-12-09T12:38:37.563Z,8.30
2018-12-09T12:41:03.769Z,8.20
2018-12-09T12:43:30.105Z,8.20
2018-12-09T12:45:56.592Z,8.30
2018-12-09T12:48:23.023Z,8.40
2018-12-09T12:50:49.296Z,8.60
2018-12-09T12:53:15.691Z,8.60
2018-12-09T12:58:36.257Z,8.60
2018-12-09T13:01:02.513Z,8.80
2018-12-09T13:03:28.964Z,8.80
2018-12-09T13:05:55.315Z,8.70
2018-12-09T13:08:22.638Z,8.60
2018-12-09T13:10:48.890Z,8.60
2018-12-09T13:13:15.124Z,8.60
2018-12-09T13:15:41.697Z,8.60
2018-12-09T13:18:07.899Z,8.40
2018-12-09T13:20:34.111Z,8.30
2018-12-09T13:23:00.590Z,8.30
2018-12-09T13:28:21.559Z,8.30
2018-12-09T13:30:47.995Z,8.40
2018-12-09T13:33:14.386Z,8.40
2018-12-09T13:35:40.846Z,8.60
2018-12-09T13:38:07.181Z,8.70
2018-12-09T13:40:33.466Z,8.70
2018-12-09T13:42:59.796Z,8.70
2018-12-09T13:45:26.214Z,8.60
2018-12-09T13:47:52.658Z,8.40
2018-12-09T13:50:26.047Z,8.40
2018-12-09T13:52:52.275Z,8.30
2018-12-09T13:55:20.305Z,8.30
2018-12-09T13:57:46.640Z,8.30
2018-12-09T14:00:15.142Z,8.20
2018-12-09T14:02:41.429Z,8.30
2018-12-09T14:05:08.090Z,8.20
2018-12-09T14:07:34.463Z,8.20
2018-12-09T14:10:00.756Z,8.10
2018-12-09T14:12:27.286Z,8.10
2018-12-09T14:17:49.278Z,8.10
2018-12-09T14:20:15.978Z,8.10
2018-12-09T14:22:42.509Z,8.10
2018-12-09T14:25:09.293Z,8.10
2018-12-09T14:27:36.486Z,8.10
2018-12-09T14:30:04.679Z,8.10
2018-12-09T14:32:31.109Z,8.10
2018-12-09T14:34:59.648Z,8.10
2018-12-09T14:37:27.259Z,8.00
2018-12-09T14:46:46.657Z,7.90
2018-12-09T14:49:12.903Z,7.80
2018-12-09T14:51:39.192Z,7.80
2018-12-09T14:54:05.485Z,7.80
2018-12-09T14:56:31.822Z,7.80
2018-12-09T14:58:58.199Z,7.80
2018-12-09T15:01:26.327Z,7.90
2018-12-09T15:03:52.735Z,7.80
2018-12-09T15:06:19.281Z,7.90
2018-12-09T15:08:45.591Z,7.90
2018-12-09T15:11:13.888Z,7.90
2018-12-09T15:13:40.125Z,7.90
2018-12-09T15:16:06.372Z,7.70
2018-12-09T15:18:32.555Z,7.60
2018-12-09T15:21:00.613Z,7.50
2018-12-09T15:23:27.043Z,7.40
2018-12-09T15:25:53.325Z,7.30
2018-12-09T15:28:19.615Z,7.30
2018-12-09T15:30:45.911Z,7.20
2018-12-09T15:33:12.596Z,7.10
2018-12-09T15:35:39.017Z,7.00
2018-12-09T15:38:05.770Z,7.00
2018-12-09T15:40:32.081Z,6.90
2018-12-09T15:42:58.357Z,6.80
2018-12-09T15:45:24.550Z,6.70
2018-12-09T15:47:51.053Z,6.60
2018-12-09T15:50:17.457Z,6.60
2018-12-09T15:52:43.676Z,6.50
2018-12-09T15:55:10.828Z,6.50
2018-12-09T15:57:37.017Z,6.40
2018-12-09T16:00:05.991Z,6.50
2018-12-09T16:02:32.187Z,6.50
2018-12-09T16:04:59.666Z,6.50
2018-12-09T16:07:25.909Z,6.60
2018-12-09T16:09:52.234Z,6.50
2018-12-09T16:12:18.594Z,6.30
2018-12-09T16:14:44.916Z,6.20
2018-12-09T16:17:26.176Z,6.10
2018-12-09T16:19:52.567Z,6.10
2018-12-09T16:22:19.857Z,6.00
2018-12-09T16:24:46.204Z,6.00
2018-12-09T16:27:12.400Z,6.00
2018-12-09T16:29:38.607Z,6.00
2018-12-09T16:32:04.932Z,6.20
2018-12-09T16:34:31.537Z,6.30
2018-12-09T16:36:58.131Z,6.40
2018-12-09T16:39:25.258Z,6.50
2018-12-09T16:44:43.932Z,6.50
2018-12-09T16:47:11.130Z,6.50
2018-12-09T16:49:37.327Z,6.40
2018-12-09T16:52:03.566Z,6.40
2018-12-09T16:54:29.764Z,6.40
2018-12-09T16:56:56.106Z,6.40
2018-12-09T16:59:22.310Z,6.30
2018-12-09T17:01:48.544Z,6.20
2018-12-09T17:04:14.847Z,6.20
2018-12-09T17:06:41.173Z,6.20
2018-12-09T17:09:07.332Z,6.10
2018-12-09T17:11:33.558Z,6.00
2018-12-09T17:13:59.745Z,6.00
2018-12-09T17:16:25.968Z,6.00
2018-12-09T17:18:52.240Z,6.00
2018-12-09T17:21:18.603Z,6.10
2018-12-09T17:23:44.943Z,6.10
2018-12-09T17:26:11.164Z,6.10
2018-12-09T17:28:37.539Z,6.10
2018-12-09T17:37:56.406Z,6.20
2018-12-09T17:40:22.603Z,6.30
2018-12-09T17:42:49.011Z,6.20
2018-12-09T17:45:15.242Z,6.20
2018-12-09T17:47:41.486Z,6.20
2018-12-09T17:50:07.783Z,6.20
2018-12-09T17:52:34.026Z,6.20
2018-12-09T17:55:00.695Z,6.20
2018-12-09T17:57:26.988Z,6.20
2018-12-09T17:59:53.341Z,6.20
2018-12-09T18:02:19.585Z,6.20
2018-12-09T18:04:45.825Z,6.20
2018-12-09T18:07:12.179Z,6.20
2018-12-09T18:09:38.469Z,6.20
2018-12-09T18:12:05.384Z,6.30
2018-12-09T18:14:31.728Z,6.30
2018-12-09T18:16:58.013Z,6.30
2018-12-09T18:19:24.245Z,6.20
2018-12-09T18:21:50.452Z,6.20
2018-12-09T18:24:16.670Z,6.20
2018-12-09T18:26:42.895Z,6.20
2018-12-09T18:29:09.841Z,6.10
2018-12-09T18:31:36.303Z,6.10
2018-12-09T18:34:02.535Z,6.10
2018-12-09T18:36:29.019Z,6.10
2018-12-09T18:38:55.972Z,6.10
2018-12-09T18:41:22.198Z,6.10
2018-12-09T18:43:48.602Z,6.10
2018-12-09T18:46:14.942Z,6.10
2018-12-09T18:48:41.194Z,6.00
2018-12-09T18:51:07.423Z,6.10
2018-12-09T18:53:33.786Z,6.10
2018-12-09T18:56:00.448Z,6.10
2018-12-09T18:58:26.947Z,6.20
2018-12-09T19:00:53.278Z,6.20
2018-12-09T19:03:20.604Z,6.10
2018-12-09T19:05:47.212Z,6.10
2018-12-09T19:08:13.515Z,6.10
2018-12-09T19:10:39.860Z,6.10
2018-12-09T19:13:06.717Z,6.00
2018-12-09T19:15:33.123Z,5.80
2018-12-09T19:17:59.355Z,5.70
2018-12-09T19:20:25.557Z,5.60
2018-12-09T19:22:51.867Z,5.40
2018-12-09T19:25:18.146Z,5.30
2018-12-09T19:27:44.701Z,5.30
2018-12-09T19:30:11.137Z,5.30
2018-12-09T19:32:37.465Z,5.30
2018-12-09T19:35:03.866Z,5.30
2018-12-09T19:37:30.371Z,5.30
2018-12-09T19:39:56.981Z,5.30
2018-12-09T19:42:23.149Z,5.40
2018-12-09T19:44:49.583Z,5.40
2018-12-09T19:47:15.808Z,5.40
2018-12-09T19:49:42.062Z,5.40
2018-12-09T19:52:08.263Z,5.40
2018-12-09T19:54:34.543Z,5.50
2018-12-09T19:57:00.975Z,5.50
2018-12-09T19:59:28.124Z,5.50
2018-12-09T20:01:54.457Z,5.40
2018-12-09T20:04:20.634Z,5.50
2018-12-09T20:06:46.825Z,5.50
2018-12-09T20:09:13.194Z,5.50
2018-12-09T20:14:31.796Z,5.50
2018-12-09T20:16:58.021Z,5.50
2018-12-09T20:19:24.227Z,5.50
2018-12-09T20:21:50.597Z,5.40
2018-12-09T20:24:16.826Z,5.40
2018-12-09T20:26:43.132Z,5.40
2018-12-09T20:29:09.386Z,5.50
2018-12-09T20:31:35.582Z,5.50
2018-12-09T20:34:01.994Z,5.50
2018-12-09T20:36:28.212Z,5.50
2018-12-09T20:38:54.422Z,5.50
2018-12-09T20:41:20.788Z,5.50
2018-12-09T20:43:47.472Z,5.50
2018-12-09T20:46:13.674Z,5.60
2018-12-09T20:48:39.891Z,5.70
2018-12-09T20:51:06.301Z,5.70
2018-12-09T20:53:32.496Z,5.70
2018-12-09T20:55:59.424Z,5.70
2018-12-09T20:58:25.663Z,5.60
2018-12-09T21:00:52.295Z,5.60
2018-12-09T21:03:18.495Z,5.70
2018-12-09T21:05:44.813Z,5.70
2018-12-09T21:08:11.099Z,5.70
2018-12-09T21:10:37.436Z,5.70
2018-12-09T21:13:04.253Z,5.70
2018-12-09T21:15:30.466Z,5.70
2018-12-09T21:17:57.329Z,5.70
2018-12-09T21:20:23.509Z,5.70
2018-12-09T21:22:49.755Z,5.80
2018-12-09T21:25:16.064Z,5.80
2018-12-09T21:27:42.343Z,5.80
2018-12-09T21:30:08.948Z,5.80
2018-12-09T21:32:35.230Z,5.80
2018-12-09T21:35:01.582Z,5.80
2018-12-09T21:37:27.928Z,5.80
2018-12-09T21:39:54.411Z,5.70
2018-12-09T21:42:21.581Z,5.70
2018-12-09T21:44:47.915Z,5.60
2018-12-09T21:47:15.083Z,5.60
2018-12-09T21:49:41.515Z,5.50
2018-12-09T21:52:07.704Z,5.50
2018-12-09T21:54:33.982Z,5.60
2018-12-09T21:57:00.245Z,5.50
2018-12-09T21:59:26.548Z,5.50
2018-12-09T22:01:52.815Z,5.40
2018-12-09T22:04:18.964Z,5.40
2018-12-09T22:06:45.367Z,5.40
2018-12-09T22:09:11.630Z,5.30
2018-12-09T22:11:38.425Z,5.40
2018-12-09T22:14:04.624Z,5.30
2018-12-09T22:16:30.876Z,5.30
2018-12-09T22:18:57.226Z,5.30
2018-12-09T22:21:23.357Z,5.30
2018-12-09T22:23:49.537Z,5.20
2018-12-09T22:26:15.843Z,5.20
2018-12-09T22:28:42.152Z,5.20
2018-12-09T22:31:09.213Z,5.20
2018-12-09T22:33:36.313Z,5.20
2018-12-09T22:36:03.007Z,5.30
2018-12-09T22:38:29.347Z,5.30
2018-12-09T22:40:55.652Z,5.40
2018-12-09T22:43:22.545Z,5.40
2018-12-09T22:45:48.830Z,5.40
2018-12-09T22:48:15.038Z,5.40
2018-12-09T22:50:41.277Z,5.50
2018-12-09T22:53:07.685Z,5.40
2018-12-09T22:55:33.933Z,5.40
2018-12-09T22:58:00.168Z,5.30
2018-12-09T23:00:27.319Z,5.30
2018-12-09T23:02:59.654Z,5.20
2018-12-09T23:05:25.993Z,5.20
2018-12-09T23:07:53.093Z,5.20
2018-12-09T23:10:19.624Z,5.20
2018-12-09T23:12:46.172Z,5.20
2018-12-09T23:15:12.713Z,5.20
2018-12-09T23:17:39.105Z,5.20
2018-12-09T23:20:05.805Z,5.30
2018-12-09T23:22:34.184Z,5.30
2018-12-09T23:25:00.640Z,5.40
2018-12-09T23:27:27.548Z,5.40
2018-12-09T23:29:53.857Z,5.40
2018-12-09T23:32:20.883Z,5.50
2018-12-09T23:34:47.365Z,5.50
2018-12-09T23:37:13.636Z,5.50
2018-12-09T23:39:39.972Z,5.50
2018-12-09T23:42:07.292Z,5.50
2018-12-09T23:44:33.579Z,5.50
2018-12-09T23:46:59.864Z,5.50
2018-12-09T23:49:26.217Z,5.50
2018-12-09T23:51:52.478Z,5.40
2018-12-09T23:54:18.827Z,5.40
2018-12-09T23:56:45.207Z,5.30
2018-12-09T23:59:11.471Z,5.30
